CES2855 ZYTL-ZYCC
Flight info
| Callsign | CES2855 |
|---|---|
| Flight time | N/A |
| Altitude | 35100 |
| Route | VENOS A588 LEMOT |
| Aircraft | A20N/M-SDE2E3FGHIRWXY/LB1 |
Departure
| Time | N/A |
|---|---|
| Airport | Dalian Zhoushuizi International Airport (ZYTL) |
Arrival
| Time | 2026-04-28 11:19 |
|---|---|
| Airport | Changchun Longjia International Airport (ZYCC) |
| Time | Latitude | Longitude | Altitude | Speed | Heading |
|---|---|---|---|---|---|
| 2026-04-28 10:29 | 39.44134 | 122.54460 | 27878 ft | 465 kts | 22° |
| 2026-04-28 10:29 | 39.46836 | 122.56821 | 28206 ft | 468 kts | 22° |
| 2026-04-28 10:29 | 39.49501 | 122.59164 | 28507 ft | 471 kts | 21° |
| 2026-04-28 10:30 | 39.52242 | 122.61569 | 28707 ft | 478 kts | 22° |
| 2026-04-28 10:30 | 39.55029 | 122.64015 | 28879 ft | 485 kts | 21° |
| 2026-04-28 10:30 | 39.57814 | 122.66473 | 29191 ft | 487 kts | 22° |
| 2026-04-28 10:30 | 39.60612 | 122.68966 | 29461 ft | 490 kts | 22° |
| 2026-04-28 10:31 | 39.63437 | 122.71474 | 29606 ft | 497 kts | 22° |
| 2026-04-28 10:31 | 39.66287 | 122.74008 | 29832 ft | 501 kts | 22° |
| 2026-04-28 10:31 | 39.69160 | 122.76559 | 30138 ft | 503 kts | 22° |
| 2026-04-28 10:31 | 39.72059 | 122.79129 | 30434 ft | 505 kts | 22° |
| 2026-04-28 10:32 | 39.74943 | 122.81694 | 30843 ft | 504 kts | 21° |
| 2026-04-28 10:32 | 39.77851 | 122.84285 | 31254 ft | 503 kts | 21° |
| 2026-04-28 10:32 | 39.80706 | 122.86827 | 31583 ft | 504 kts | 21° |
| 2026-04-28 10:32 | 39.83606 | 122.89405 | 31888 ft | 505 kts | 21° |
| 2026-04-28 10:33 | 39.86485 | 122.91975 | 32283 ft | 503 kts | 21° |
| 2026-04-28 10:33 | 39.89396 | 122.94572 | 32639 ft | 503 kts | 20° |
| 2026-04-28 10:33 | 39.92274 | 122.97134 | 32896 ft | 505 kts | 21° |
| 2026-04-28 10:33 | 39.95157 | 122.99707 | 33143 ft | 506 kts | 20° |
| 2026-04-28 10:34 | 39.98060 | 123.02304 | 33496 ft | 505 kts | 20° |
| 2026-04-28 10:34 | 40.00914 | 123.04863 | 33871 ft | 502 kts | 20° |
| 2026-04-28 10:34 | 40.03791 | 123.07436 | 34143 ft | 503 kts | 20° |
| 2026-04-28 10:34 | 40.06674 | 123.10013 | 34434 ft | 502 kts | 21° |
| 2026-04-28 10:35 | 40.09571 | 123.12601 | 34674 ft | 503 kts | 21° |
| 2026-04-28 10:35 | 40.12450 | 123.15179 | 34899 ft | 503 kts | 22° |
| 2026-04-28 10:35 | 40.15333 | 123.17769 | 35160 ft | 503 kts | 22° |
| 2026-04-28 10:36 | 40.21099 | 123.22964 | 35183 ft | 501 kts | 22° |
| 2026-04-28 10:36 | 40.26837 | 123.28146 | 35179 ft | 500 kts | 23° |
| 2026-04-28 10:37 | 40.32520 | 123.33296 | 35182 ft | 498 kts | 23° |
| 2026-04-28 10:37 | 40.38182 | 123.38425 | 35172 ft | 494 kts | 24° |
| 2026-04-28 10:38 | 40.43828 | 123.43568 | 35174 ft | 494 kts | 23° |
| 2026-04-28 10:38 | 40.49495 | 123.48720 | 35172 ft | 492 kts | 24° |
| 2026-04-28 10:39 | 40.55101 | 123.53840 | 35171 ft | 492 kts | 24° |
| 2026-04-28 10:39 | 40.60771 | 123.58592 | 35169 ft | 481 kts | 18° |
| 2026-04-28 10:40 | 40.66597 | 123.62852 | 35170 ft | 478 kts | 17° |
| 2026-04-28 10:40 | 40.72415 | 123.67079 | 35164 ft | 478 kts | 19° |
| 2026-04-28 10:41 | 40.78215 | 123.71365 | 35160 ft | 479 kts | 19° |
| 2026-04-28 10:41 | 40.84014 | 123.75636 | 35168 ft | 477 kts | 19° |
| 2026-04-28 10:42 | 40.89843 | 123.79812 | 35167 ft | 476 kts | 18° |
| 2026-04-28 10:42 | 40.95621 | 123.83929 | 35169 ft | 474 kts | 19° |
| 2026-04-28 10:43 | 41.01396 | 123.88057 | 35173 ft | 472 kts | 19° |
| 2026-04-28 10:43 | 41.07170 | 123.92197 | 35176 ft | 471 kts | 19° |
| 2026-04-28 10:44 | 41.12892 | 123.96303 | 35174 ft | 468 kts | 19° |
| 2026-04-28 10:44 | 41.18659 | 124.00440 | 35170 ft | 469 kts | 20° |
| 2026-04-28 10:45 | 41.24383 | 124.04568 | 35164 ft | 468 kts | 20° |
| 2026-04-28 10:45 | 41.30057 | 124.08672 | 35162 ft | 467 kts | 20° |
| 2026-04-28 10:46 | 41.35745 | 124.12790 | 35166 ft | 465 kts | 20° |
| 2026-04-28 10:46 | 41.41450 | 124.16938 | 35169 ft | 464 kts | 21° |
| 2026-04-28 10:47 | 41.47070 | 124.21150 | 35174 ft | 465 kts | 21° |
| 2026-04-28 10:47 | 41.52653 | 124.25370 | 35178 ft | 463 kts | 22° |
| 2026-04-28 10:48 | 41.58219 | 124.29574 | 35174 ft | 461 kts | 22° |
| 2026-04-28 10:48 | 41.63822 | 124.33806 | 35171 ft | 461 kts | 22° |
| 2026-04-28 10:49 | 41.69380 | 124.38014 | 35165 ft | 459 kts | 22° |
| 2026-04-28 10:49 | 41.74886 | 124.42194 | 35166 ft | 458 kts | 22° |
| 2026-04-28 10:50 | 41.80468 | 124.46434 | 35168 ft | 458 kts | 22° |
| 2026-04-28 10:50 | 41.85955 | 124.50616 | 35165 ft | 458 kts | 22° |
| 2026-04-28 10:51 | 41.91522 | 124.54861 | 35164 ft | 457 kts | 23° |
| 2026-04-28 10:51 | 41.97001 | 124.59056 | 35162 ft | 456 kts | 22° |
| 2026-04-28 10:52 | 42.02605 | 124.63005 | 35167 ft | 452 kts | 20° |
| 2026-04-28 10:52 | 42.08225 | 124.66846 | 35166 ft | 452 kts | 21° |
| 2026-04-28 10:53 | 42.13814 | 124.70686 | 34950 ft | 451 kts | 21° |
| 2026-04-28 10:53 | 42.16610 | 124.72606 | 34715 ft | 448 kts | 21° |
| 2026-04-28 10:53 | 42.19363 | 124.74500 | 34476 ft | 444 kts | 21° |
| 2026-04-28 10:53 | 42.22132 | 124.76404 | 34246 ft | 442 kts | 21° |
| 2026-04-28 10:54 | 42.24853 | 124.78278 | 34012 ft | 438 kts | 21° |
| 2026-04-28 10:54 | 42.27597 | 124.80170 | 33761 ft | 437 kts | 21° |
| 2026-04-28 10:54 | 42.30287 | 124.82024 | 33502 ft | 437 kts | 21° |
| 2026-04-28 10:54 | 42.33000 | 124.83897 | 33215 ft | 436 kts | 22° |
| 2026-04-28 10:55 | 42.35690 | 124.85753 | 32796 ft | 437 kts | 22° |
| 2026-04-28 10:55 | 42.38416 | 124.87637 | 32308 ft | 438 kts | 22° |
| 2026-04-28 10:55 | 42.41098 | 124.89496 | 31840 ft | 440 kts | 23° |
| 2026-04-28 10:55 | 42.43830 | 124.91386 | 31321 ft | 442 kts | 24° |
| 2026-04-28 10:56 | 42.46547 | 124.93271 | 30759 ft | 444 kts | 24° |
| 2026-04-28 10:56 | 42.49308 | 124.95191 | 30072 ft | 444 kts | 24° |
| 2026-04-28 10:56 | 42.52034 | 124.97092 | 29568 ft | 439 kts | 24° |
| 2026-04-28 10:56 | 42.54715 | 124.98965 | 29105 ft | 432 kts | 24° |
| 2026-04-28 10:57 | 42.57351 | 125.00806 | 28592 ft | 427 kts | 24° |
| 2026-04-28 10:57 | 42.59988 | 125.02647 | 28118 ft | 421 kts | 24° |
| 2026-04-28 10:57 | 42.62541 | 125.04432 | 27701 ft | 414 kts | 24° |
| 2026-04-28 10:57 | 42.65104 | 125.06223 | 27197 ft | 409 kts | 24° |
| 2026-04-28 10:58 | 42.67600 | 125.07969 | 26787 ft | 403 kts | 24° |
| 2026-04-28 10:58 | 42.70050 | 125.09682 | 26416 ft | 396 kts | 24° |
| 2026-04-28 10:58 | 42.72482 | 125.11386 | 26061 ft | 389 kts | 24° |
| 2026-04-28 10:58 | 42.74869 | 125.13061 | 25704 ft | 383 kts | 24° |
| 2026-04-28 10:59 | 42.77204 | 125.14700 | 25349 ft | 377 kts | 24° |
| 2026-04-28 10:59 | 42.79529 | 125.16337 | 24997 ft | 371 kts | 25° |
| 2026-04-28 10:59 | 42.81663 | 125.18246 | 24637 ft | 371 kts | 36° |
| 2026-04-28 10:59 | 42.83506 | 125.20713 | 24254 ft | 373 kts | 47° |
| 2026-04-28 11:00 | 42.85013 | 125.23547 | 23840 ft | 372 kts | 52° |
| 2026-04-28 11:00 | 42.86421 | 125.26460 | 23497 ft | 368 kts | 53° |
| 2026-04-28 11:00 | 42.87819 | 125.29383 | 23137 ft | 364 kts | 53° |
| 2026-04-28 11:00 | 42.89188 | 125.32227 | 22773 ft | 361 kts | 53° |
| 2026-04-28 11:01 | 42.90664 | 125.34995 | 22352 ft | 356 kts | 44° |
| 2026-04-28 11:01 | 42.92451 | 125.37259 | 21861 ft | 351 kts | 33° |
| 2026-04-28 11:01 | 42.94499 | 125.38992 | 21363 ft | 348 kts | 25° |
| 2026-04-28 11:01 | 42.96654 | 125.40508 | 20971 ft | 345 kts | 24° |
| 2026-04-28 11:02 | 42.98779 | 125.41972 | 20659 ft | 347 kts | 24° |
| 2026-04-28 11:02 | 43.00945 | 125.43467 | 20314 ft | 348 kts | 24° |
| 2026-04-28 11:02 | 43.03079 | 125.44949 | 19943 ft | 346 kts | 24° |
| 2026-04-28 11:02 | 43.05220 | 125.46446 | 19550 ft | 344 kts | 24° |
| 2026-04-28 11:03 | 43.07323 | 125.47917 | 19154 ft | 341 kts | 24° |
| 2026-04-28 11:03 | 43.09439 | 125.49403 | 18757 ft | 339 kts | 24° |
| 2026-04-28 11:03 | 43.11526 | 125.50866 | 18352 ft | 337 kts | 24° |
| 2026-04-28 11:03 | 43.13604 | 125.52319 | 17948 ft | 334 kts | 24° |
| 2026-04-28 11:04 | 43.15662 | 125.53762 | 17550 ft | 332 kts | 24° |
| 2026-04-28 11:04 | 43.17719 | 125.55208 | 17145 ft | 330 kts | 24° |
| 2026-04-28 11:04 | 43.19761 | 125.56648 | 16745 ft | 328 kts | 24° |
| 2026-04-28 11:04 | 43.21769 | 125.58065 | 16350 ft | 326 kts | 24° |
| 2026-04-28 11:05 | 43.23767 | 125.59476 | 15958 ft | 324 kts | 24° |
| 2026-04-28 11:05 | 43.25787 | 125.60854 | 15653 ft | 319 kts | 18° |
| 2026-04-28 11:05 | 43.27915 | 125.61480 | 15355 ft | 314 kts | 359° |
| 2026-04-28 11:05 | 43.30054 | 125.61041 | 14934 ft | 311 kts | 342° |
| 2026-04-28 11:06 | 43.32085 | 125.60109 | 14550 ft | 310 kts | 341° |
| 2026-04-28 11:06 | 43.34111 | 125.59156 | 14170 ft | 308 kts | 341° |
| 2026-04-28 11:06 | 43.36155 | 125.58199 | 13790 ft | 306 kts | 341° |
| 2026-04-28 11:06 | 43.38155 | 125.57267 | 13418 ft | 304 kts | 341° |
| 2026-04-28 11:07 | 43.40158 | 125.56338 | 13042 ft | 303 kts | 341° |
| 2026-04-28 11:07 | 43.42144 | 125.55421 | 12670 ft | 301 kts | 341° |
| 2026-04-28 11:07 | 43.44129 | 125.54503 | 12297 ft | 299 kts | 341° |
| 2026-04-28 11:07 | 43.46095 | 125.53593 | 11924 ft | 298 kts | 341° |
| 2026-04-28 11:08 | 43.48036 | 125.52690 | 11560 ft | 296 kts | 341° |
| 2026-04-28 11:08 | 43.49983 | 125.51783 | 11261 ft | 290 kts | 341° |
| 2026-04-28 11:08 | 43.51868 | 125.50902 | 10981 ft | 284 kts | 341° |
| 2026-04-28 11:08 | 43.53732 | 125.50030 | 10658 ft | 280 kts | 340° |
| 2026-04-28 11:09 | 43.55545 | 125.49184 | 10343 ft | 275 kts | 340° |
| 2026-04-28 11:09 | 43.57350 | 125.48338 | 10086 ft | 269 kts | 341° |
| 2026-04-28 11:09 | 43.59083 | 125.47527 | 9794 ft | 264 kts | 340° |
| 2026-04-28 11:09 | 43.60767 | 125.46487 | 9400 ft | 264 kts | 330° |
| 2026-04-28 11:10 | 43.62261 | 125.45053 | 9007 ft | 264 kts | 321° |
| 2026-04-28 11:10 | 43.63653 | 125.43424 | 8636 ft | 263 kts | 320° |
| 2026-04-28 11:10 | 43.65032 | 125.41766 | 8360 ft | 258 kts | 319° |
| 2026-04-28 11:10 | 43.66368 | 125.40159 | 8104 ft | 252 kts | 319° |
| 2026-04-28 11:11 | 43.67672 | 125.38593 | 7851 ft | 247 kts | 319° |
| 2026-04-28 11:11 | 43.69038 | 125.37179 | 7578 ft | 242 kts | 336° |
| 2026-04-28 11:11 | 43.70671 | 125.36898 | 7326 ft | 239 kts | 8° |
| 2026-04-28 11:11 | 43.72205 | 125.37706 | 7191 ft | 233 kts | 25° |
| 2026-04-28 11:12 | 43.73613 | 125.38761 | 7029 ft | 225 kts | 25° |
| 2026-04-28 11:12 | 43.74970 | 125.39764 | 6866 ft | 217 kts | 24° |
| 2026-04-28 11:12 | 43.76279 | 125.40707 | 6697 ft | 210 kts | 24° |
| 2026-04-28 11:12 | 43.77577 | 125.41621 | 6436 ft | 208 kts | 23° |
| 2026-04-28 11:13 | 43.78865 | 125.42516 | 6133 ft | 208 kts | 23° |
| 2026-04-28 11:13 | 43.80146 | 125.43401 | 5827 ft | 208 kts | 23° |
| 2026-04-28 11:13 | 43.81442 | 125.44294 | 5531 ft | 207 kts | 23° |
| 2026-04-28 11:13 | 43.82730 | 125.45182 | 5239 ft | 207 kts | 23° |
| 2026-04-28 11:14 | 43.83999 | 125.46058 | 5100 ft | 197 kts | 23° |
| 2026-04-28 11:14 | 43.85170 | 125.46872 | 4978 ft | 185 kts | 24° |
| 2026-04-28 11:14 | 43.86286 | 125.47778 | 4616 ft | 188 kts | 31° |
| 2026-04-28 11:14 | 43.87300 | 125.48930 | 4272 ft | 190 kts | 39° |
| 2026-04-28 11:15 | 43.88232 | 125.50226 | 3940 ft | 190 kts | 42° |
| 2026-04-28 11:15 | 43.89113 | 125.51554 | 3589 ft | 187 kts | 44° |
| 2026-04-28 11:15 | 43.89993 | 125.52946 | 3336 ft | 190 kts | 45° |
| 2026-04-28 11:15 | 43.90850 | 125.54331 | 3071 ft | 190 kts | 45° |
| 2026-04-28 11:16 | 43.91707 | 125.55724 | 2809 ft | 190 kts | 45° |
| 2026-04-28 11:16 | 43.92567 | 125.57119 | 2546 ft | 187 kts | 45° |
| 2026-04-28 11:16 | 43.93388 | 125.58450 | 2313 ft | 175 kts | 45° |
| 2026-04-28 11:16 | 43.94146 | 125.59677 | 2083 ft | 162 kts | 45° |
| 2026-04-28 11:17 | 43.94849 | 125.60812 | 1853 ft | 148 kts | 45° |
| 2026-04-28 11:17 | 43.95496 | 125.61855 | 1674 ft | 143 kts | 45° |
| 2026-04-28 11:17 | 43.96152 | 125.62912 | 1495 ft | 143 kts | 45° |
| 2026-04-28 11:17 | 43.96793 | 125.63945 | 1314 ft | 142 kts | 45° |
| 2026-04-28 11:18 | 43.97445 | 125.64988 | 1124 ft | 142 kts | 46° |
| 2026-04-28 11:18 | 43.98080 | 125.66021 | 936 ft | 141 kts | 47° |
| 2026-04-28 11:18 | 43.98702 | 125.67024 | 764 ft | 140 kts | 48° |
| 2026-04-28 11:18 | 43.99315 | 125.68014 | 715 ft | 120 kts | 47° |
| 2026-04-28 11:19 | 43.99683 | 125.68601 | 714 ft | 57 kts | 50° |
| 2026-04-28 11:19 | 43.99877 | 125.68925 | 714 ft | 37 kts | 56° |
| 2026-04-28 11:19 | 43.99952 | 125.69193 | 714 ft | 17 kts | 79° |
| 2026-04-28 11:19 | 43.99968 | 125.69312 | 714 ft | 10 kts | 79° |
| 2026-04-28 11:20 | 43.99965 | 125.69398 | 714 ft | 9 kts | 120° |
| 2026-04-28 11:20 | 43.99920 | 125.69456 | 714 ft | 8 kts | 140° |
| 2026-04-28 11:20 | 43.99879 | 125.69504 | 714 ft | 8 kts | 141° |
| 2026-04-28 11:20 | 43.99826 | 125.69501 | 714 ft | 9 kts | 225° |
| 2026-04-28 11:21 | 43.99781 | 125.69429 | 714 ft | 10 kts | 230° |
| 2026-04-28 11:21 | 43.99731 | 125.69349 | 714 ft | 11 kts | 230° |
| 2026-04-28 11:21 | 43.99677 | 125.69262 | 714 ft | 12 kts | 230° |
| 2026-04-28 11:21 | 43.99620 | 125.69168 | 714 ft | 13 kts | 229° |
| 2026-04-28 11:22 | 43.99567 | 125.69084 | 714 ft | 11 kts | 230° |
| 2026-04-28 11:22 | 43.99526 | 125.69021 | 714 ft | 6 kts | 218° |
| 2026-04-28 11:22 | 43.99484 | 125.69031 | 714 ft | 7 kts | 143° |
| 2026-04-28 11:22 | 43.99456 | 125.69065 | 714 ft | 4 kts | 139° |
| 2026-04-28 11:23 | 43.99448 | 125.69074 | 714 ft | 0 kts | 139° |
| 2026-04-28 11:23 | 43.99445 | 125.69078 | 714 ft | 0 kts | 139° |